sensor_id;sensor_type;location;lat;lon;timestamp;temperature;humidity
9915;DHT22;4996;48.746;9.174;2024-01-15T00:01:12;-0.30;99.90
9915;DHT22;4996;48.746;9.174;2024-01-15T00:03:37;0.00;99.90
9915;DHT22;4996;48.746;9.174;2024-01-15T00:06:03;0.00;99.90
9915;DHT22;4996;48.746;9.174;2024-01-15T00:08:29;0.00;99.90
9915;DHT22;4996;48.746;9.174;2024-01-15T00:10:54;-0.10;99.90
9915;DHT22;4996;48.746;9.174;2024-01-15T00:13:20;0.00;99.90
9915;DHT22;4996;48.746;9.174;2024-01-15T00:15:45;0.00;99.90
9915;DHT22;4996;48.746;9.174;2024-01-15T00:18:11;-0.20;99.90
9915;DHT22;4996;48.746;9.174;2024-01-15T00:20:36;-0.10;99.90
9915;DHT22;4996;48.746;9.174;2024-01-15T00:23:02;-0.10;99.90
9915;DHT22;4996;48.746;9.174;2024-01-15T00:25:27;-0.10;99.90
9915;DHT22;4996;48.746;9.174;2024-01-15T00:27:53;-0.20;99.90
9915;DHT22;4996;48.746;9.174;2024-01-15T00:30:18;-0.10;99.90
9915;DHT22;4996;48.746;9.174;2024-01-15T00:32:44;0.10;99.90
9915;DHT22;4996;48.746;9.174;2024-01-15T00:35:09;-0.20;99.90
9915;DHT22;4996;48.746;9.174;2024-01-15T00:37:35;-0.40;99.90
9915;DHT22;4996;48.746;9.174;2024-01-15T00:40:00;-0.20;99.90
9915;DHT22;4996;48.746;9.174;2024-01-15T00:42:26;-0.20;99.90
9915;DHT22;4996;48.746;9.174;2024-01-15T00:44:51;-0.20;99.90
9915;DHT22;4996;48.746;9.174;2024-01-15T00:47:18;-0.20;99.90
9915;DHT22;4996;48.746;9.174;2024-01-15T00:49:44;0.20;99.90
9915;DHT22;4996;48.746;9.174;2024-01-15T00:52:09;-0.10;99.90
9915;DHT22;4996;48.746;9.174;2024-01-15T00:54:35;-0.10;99.90
9915;DHT22;4996;48.746;9.174;2024-01-15T00:57:01;-0.10;99.90
9915;DHT22;4996;48.746;9.174;2024-01-15T00:59:26;0.00;99.90
9915;DHT22;4996;48.746;9.174;2024-01-15T01:01:52;0.10;99.90
9915;DHT22;4996;48.746;9.174;2024-01-15T01:04:17;0.10;99.90
9915;DHT22;4996;48.746;9.174;2024-01-15T01:06:43;0.20;99.90
9915;DHT22;4996;48.746;9.174;2024-01-15T01:09:08;0.30;99.90
9915;DHT22;4996;48.746;9.174;2024-01-15T01:11:34;0.20;99.90
9915;DHT22;4996;48.746;9.174;2024-01-15T01:13:59;0.20;99.90
9915;DHT22;4996;48.746;9.174;2024-01-15T01:16:26;0.10;99.90
9915;DHT22;4996;48.746;9.174;2024-01-15T01:18:52;-0.10;99.90
9915;DHT22;4996;48.746;9.174;2024-01-15T01:21:17;0.00;99.90
9915;DHT22;4996;48.746;9.174;2024-01-15T01:23:43;0.00;99.90
9915;DHT22;4996;48.746;9.174;2024-01-15T01:26:08;0.00;99.90
9915;DHT22;4996;48.746;9.174;2024-01-15T01:28:34;0.00;99.90
9915;DHT22;4996;48.746;9.174;2024-01-15T01:30:59;0.10;99.90
9915;DHT22;4996;48.746;9.174;2024-01-15T01:33:25;0.20;99.90
9915;DHT22;4996;48.746;9.174;2024-01-15T01:35:50;0.20;99.90
9915;DHT22;4996;48.746;9.174;2024-01-15T01:38:16;0.30;99.90
9915;DHT22;4996;48.746;9.174;2024-01-15T01:40:41;0.30;99.90
9915;DHT22;4996;48.746;9.174;2024-01-15T01:43:09;0.40;99.90
9915;DHT22;4996;48.746;9.174;2024-01-15T01:45:35;0.50;99.90
9915;DHT22;4996;48.746;9.174;2024-01-15T01:48:01;0.70;99.90
9915;DHT22;4996;48.746;9.174;2024-01-15T01:50:29;0.50;99.90
9915;DHT22;4996;48.746;9.174;2024-01-15T01:52:55;0.60;99.90
9915;DHT22;4996;48.746;9.174;2024-01-15T01:55:21;0.60;99.90
9915;DHT22;4996;48.746;9.174;2024-01-15T01:57:50;0.60;99.90
9915;DHT22;4996;48.746;9.174;2024-01-15T02:00:15;0.50;99.90
9915;DHT22;4996;48.746;9.174;2024-01-15T02:02:42;0.40;99.90
9915;DHT22;4996;48.746;9.174;2024-01-15T02:05:08;0.40;99.90
9915;DHT22;4996;48.746;9.174;2024-01-15T02:07:35;0.60;99.90
9915;DHT22;4996;48.746;9.174;2024-01-15T02:10:01;0.30;99.90
9915;DHT22;4996;48.746;9.174;2024-01-15T02:12:27;0.30;99.90
9915;DHT22;4996;48.746;9.174;2024-01-15T02:14:52;0.50;99.90
9915;DHT22;4996;48.746;9.174;2024-01-15T02:17:18;0.50;99.90
9915;DHT22;4996;48.746;9.174;2024-01-15T02:19:43;0.20;99.90
9915;DHT22;4996;48.746;9.174;2024-01-15T02:22:09;0.60;99.90
9915;DHT22;4996;48.746;9.174;2024-01-15T02:24:34;0.60;99.90
9915;DHT22;4996;48.746;9.174;2024-01-15T02:27:00;0.20;99.90
9915;DHT22;4996;48.746;9.174;2024-01-15T02:29:26;0.30;99.90
9915;DHT22;4996;48.746;9.174;2024-01-15T02:31:51;0.30;99.90
9915;DHT22;4996;48.746;9.174;2024-01-15T02:34:17;0.30;99.90
9915;DHT22;4996;48.746;9.174;2024-01-15T02:36:42;0.40;99.90
9915;DHT22;4996;48.746;9.174;2024-01-15T02:39:08;0.50;99.90
9915;DHT22;4996;48.746;9.174;2024-01-15T02:41:33;0.50;99.90
9915;DHT22;4996;48.746;9.174;2024-01-15T02:43:59;0.40;99.90
9915;DHT22;4996;48.746;9.174;2024-01-15T02:46:24;0.40;99.90
9915;DHT22;4996;48.746;9.174;2024-01-15T02:48:50;0.40;99.90
9915;DHT22;4996;48.746;9.174;2024-01-15T02:51:16;0.30;99.90
9915;DHT22;4996;48.746;9.174;2024-01-15T02:53:41;0.40;99.90
9915;DHT22;4996;48.746;9.174;2024-01-15T02:56:07;0.40;99.90
9915;DHT22;4996;48.746;9.174;2024-01-15T02:58:33;0.40;99.90
9915;DHT22;4996;48.746;9.174;2024-01-15T03:00:58;0.20;99.90
9915;DHT22;4996;48.746;9.174;2024-01-15T03:03:24;0.30;99.90
9915;DHT22;4996;48.746;9.174;2024-01-15T03:05:49;0.30;99.90
9915;DHT22;4996;48.746;9.174;2024-01-15T03:08:15;0.70;99.90
9915;DHT22;4996;48.746;9.174;2024-01-15T03:10:41;0.10;99.90
9915;DHT22;4996;48.746;9.174;2024-01-15T03:13:06;0.10;99.90
9915;DHT22;4996;48.746;9.174;2024-01-15T03:15:32;0.00;99.90
9915;DHT22;4996;48.746;9.174;2024-01-15T03:17:57;0.00;99.90
9915;DHT22;4996;48.746;9.174;2024-01-15T03:20:23;0.10;99.90
9915;DHT22;4996;48.746;9.174;2024-01-15T03:22:48;0.00;99.90
9915;DHT22;4996;48.746;9.174;2024-01-15T03:25:14;0.00;99.90
9915;DHT22;4996;48.746;9.174;2024-01-15T03:27:40;0.10;99.90
9915;DHT22;4996;48.746;9.174;2024-01-15T03:30:06;-0.10;99.90
9915;DHT22;4996;48.746;9.174;2024-01-15T03:32:31;-0.10;99.90
9915;DHT22;4996;48.746;9.174;2024-01-15T03:34:57;-0.10;99.90
9915;DHT22;4996;48.746;9.174;2024-01-15T03:37:23;-0.10;99.90
9915;DHT22;4996;48.746;9.174;2024-01-15T03:39:48;0.30;99.90
9915;DHT22;4996;48.746;9.174;2024-01-15T03:42:14;-0.10;99.90
9915;DHT22;4996;48.746;9.174;2024-01-15T03:44:39;0.00;99.90
9915;DHT22;4996;48.746;9.174;2024-01-15T03:47:05;0.00;99.90
9915;DHT22;4996;48.746;9.174;2024-01-15T03:49:30;0.00;99.90
9915;DHT22;4996;48.746;9.174;2024-01-15T03:51:56;0.10;99.90
9915;DHT22;4996;48.746;9.174;2024-01-15T03:54:21;0.00;99.90
9915;DHT22;4996;48.746;9.174;2024-01-15T03:56:47;0.10;99.90
9915;DHT22;4996;48.746;9.174;2024-01-15T03:59:13;0.60;99.90
9915;DHT22;4996;48.746;9.174;2024-01-15T04:01:38;0.30;99.90
9915;DHT22;4996;48.746;9.174;2024-01-15T04:04:04;0.30;99.90
9915;DHT22;4996;48.746;9.174;2024-01-15T04:06:29;0.30;99.90
9915;DHT22;4996;48.746;9.174;2024-01-15T04:08:55;0.30;99.90
9915;DHT22;4996;48.746;9.174;2024-01-15T04:11:21;0.20;99.90
9915;DHT22;4996;48.746;9.174;2024-01-15T04:13:47;0.40;99.90
9915;DHT22;4996;48.746;9.174;2024-01-15T04:16:13;0.10;99.90
9915;DHT22;4996;48.746;9.174;2024-01-15T04:18:39;0.60;99.90
9915;DHT22;4996;48.746;9.174;2024-01-15T04:21:05;0.10;99.90
9915;DHT22;4996;48.746;9.174;2024-01-15T04:23:32;0.20;99.90
9915;DHT22;4996;48.746;9.174;2024-01-15T04:25:58;0.70;99.90
9915;DHT22;4996;48.746;9.174;2024-01-15T04:28:23;0.50;99.90
9915;DHT22;4996;48.746;9.174;2024-01-15T04:30:49;0.70;99.90
9915;DHT22;4996;48.746;9.174;2024-01-15T04:33:14;0.70;99.90
9915;DHT22;4996;48.746;9.174;2024-01-15T04:35:40;1.10;99.90
9915;DHT22;4996;48.746;9.174;2024-01-15T04:38:07;1.10;99.90
9915;DHT22;4996;48.746;9.174;2024-01-15T04:40:35;0.60;99.90
9915;DHT22;4996;48.746;9.174;2024-01-15T04:43:01;0.70;99.90
9915;DHT22;4996;48.746;9.174;2024-01-15T04:45:26;0.60;99.90
9915;DHT22;4996;48.746;9.174;2024-01-15T04:47:54;0.60;99.90
9915;DHT22;4996;48.746;9.174;2024-01-15T04:50:20;0.60;99.90
9915;DHT22;4996;48.746;9.174;2024-01-15T04:52:45;0.70;99.90
9915;DHT22;4996;48.746;9.174;2024-01-15T04:55:11;0.50;99.90
9915;DHT22;4996;48.746;9.174;2024-01-15T04:57:36;0.40;99.90
9915;DHT22;4996;48.746;9.174;2024-01-15T05:00:02;0.50;99.90
9915;DHT22;4996;48.746;9.174;2024-01-15T05:02:28;0.60;99.90
9915;DHT22;4996;48.746;9.174;2024-01-15T05:04:53;0.60;99.90
9915;DHT22;4996;48.746;9.174;2024-01-15T05:07:19;0.70;99.90
9915;DHT22;4996;48.746;9.174;2024-01-15T05:09:44;0.60;99.90
9915;DHT22;4996;48.746;9.174;2024-01-15T05:12:10;0.70;99.90
9915;DHT22;4996;48.746;9.174;2024-01-15T05:14:35;1.20;99.90
9915;DHT22;4996;48.746;9.174;2024-01-15T05:17:01;0.70;99.90
9915;DHT22;4996;48.746;9.174;2024-01-15T05:19:26;0.70;99.90
9915;DHT22;4996;48.746;9.174;2024-01-15T05:21:52;0.60;99.90
9915;DHT22;4996;48.746;9.174;2024-01-15T05:24:17;0.50;99.90
9915;DHT22;4996;48.746;9.174;2024-01-15T05:26:43;0.50;99.90
9915;DHT22;4996;48.746;9.174;2024-01-15T05:29:09;0.50;99.90
9915;DHT22;4996;48.746;9.174;2024-01-15T05:31:35;0.50;99.90
9915;DHT22;4996;48.746;9.174;2024-01-15T05:34:01;0.70;99.90
9915;DHT22;4996;48.746;9.174;2024-01-15T05:36:27;0.70;99.90
9915;DHT22;4996;48.746;9.174;2024-01-15T05:38:52;0.70;99.90
9915;DHT22;4996;48.746;9.174;2024-01-15T05:41:18;0.80;99.90
9915;DHT22;4996;48.746;9.174;2024-01-15T05:43:43;0.70;99.90
9915;DHT22;4996;48.746;9.174;2024-01-15T05:46:09;0.60;99.90
9915;DHT22;4996;48.746;9.174;2024-01-15T05:48:34;0.70;99.90
9915;DHT22;4996;48.746;9.174;2024-01-15T05:51:00;0.70;99.90
9915;DHT22;4996;48.746;9.174;2024-01-15T05:53:25;1.00;99.90
9915;DHT22;4996;48.746;9.174;2024-01-15T05:55:51;0.70;99.90
9915;DHT22;4996;48.746;9.174;2024-01-15T05:58:16;0.70;99.90
9915;DHT22;4996;48.746;9.174;2024-01-15T06:00:42;0.70;99.90
9915;DHT22;4996;48.746;9.174;2024-01-15T06:03:07;0.70;99.90
9915;DHT22;4996;48.746;9.174;2024-01-15T06:05:33;0.80;99.90
9915;DHT22;4996;48.746;9.174;2024-01-15T06:07:58;0.80;99.90
9915;DHT22;4996;48.746;9.174;2024-01-15T06:10:24;0.70;99.90
9915;DHT22;4996;48.746;9.174;2024-01-15T06:12:49;0.50;99.90
9915;DHT22;4996;48.746;9.174;2024-01-15T06:15:15;0.70;99.90
9915;DHT22;4996;48.746;9.174;2024-01-15T06:17:41;0.60;99.90
9915;DHT22;4996;48.746;9.174;2024-01-15T06:20:07;0.50;99.90
9915;DHT22;4996;48.746;9.174;2024-01-15T06:22:32;0.70;99.90
9915;DHT22;4996;48.746;9.174;2024-01-15T06:24:58;0.70;99.90
9915;DHT22;4996;48.746;9.174;2024-01-15T06:27:24;1.10;99.90
9915;DHT22;4996;48.746;9.174;2024-01-15T06:29:50;0.60;99.90
9915;DHT22;4996;48.746;9.174;2024-01-15T06:32:15;0.40;99.90
9915;DHT22;4996;48.746;9.174;2024-01-15T06:34:40;0.30;99.90
9915;DHT22;4996;48.746;9.174;2024-01-15T06:37:06;0.30;99.90
9915;DHT22;4996;48.746;9.174;2024-01-15T06:39:32;0.40;99.90
9915;DHT22;4996;48.746;9.174;2024-01-15T06:41:57;0.30;99.90
9915;DHT22;4996;48.746;9.174;2024-01-15T06:44:23;0.30;99.90
9915;DHT22;4996;48.746;9.174;2024-01-15T06:46:48;0.30;99.90
9915;DHT22;4996;48.746;9.174;2024-01-15T06:49:14;0.50;99.90
9915;DHT22;4996;48.746;9.174;2024-01-15T06:51:40;0.70;99.90
9915;DHT22;4996;48.746;9.174;2024-01-15T06:54:06;0.80;99.90
9915;DHT22;4996;48.746;9.174;2024-01-15T06:56:31;0.80;99.90
9915;DHT22;4996;48.746;9.174;2024-01-15T06:58:57;0.60;99.90
9915;DHT22;4996;48.746;9.174;2024-01-15T07:01:23;0.70;99.90
9915;DHT22;4996;48.746;9.174;2024-01-15T07:03:48;0.60;99.90
9915;DHT22;4996;48.746;9.174;2024-01-15T07:06:14;1.00;99.90
9915;DHT22;4996;48.746;9.174;2024-01-15T07:08:40;0.60;99.90
9915;DHT22;4996;48.746;9.174;2024-01-15T07:11:06;0.60;99.90
9915;DHT22;4996;48.746;9.174;2024-01-15T07:13:32;0.50;99.90
9915;DHT22;4996;48.746;9.174;2024-01-15T07:15:57;0.60;99.90
9915;DHT22;4996;48.746;9.174;2024-01-15T07:18:23;0.70;99.90
9915;DHT22;4996;48.746;9.174;2024-01-15T07:20:49;0.70;99.90
9915;DHT22;4996;48.746;9.174;2024-01-15T07:23:14;1.00;99.90
9915;DHT22;4996;48.746;9.174;2024-01-15T07:25:40;0.50;99.90
9915;DHT22;4996;48.746;9.174;2024-01-15T07:28:05;0.60;99.90
9915;DHT22;4996;48.746;9.174;2024-01-15T07:30:31;0.60;99.90
9915;DHT22;4996;48.746;9.174;2024-01-15T07:32:57;0.70;99.90
9915;DHT22;4996;48.746;9.174;2024-01-15T07:35:22;0.60;99.90
9915;DHT22;4996;48.746;9.174;2024-01-15T07:37:48;0.70;99.90
9915;DHT22;4996;48.746;9.174;2024-01-15T07:40:13;0.80;99.90
9915;DHT22;4996;48.746;9.174;2024-01-15T07:42:39;0.80;99.90
9915;DHT22;4996;48.746;9.174;2024-01-15T07:45:05;0.70;99.90
9915;DHT22;4996;48.746;9.174;2024-01-15T07:47:31;0.70;99.90
9915;DHT22;4996;48.746;9.174;2024-01-15T07:49:57;0.60;99.90
9915;DHT22;4996;48.746;9.174;2024-01-15T07:52:22;0.70;99.90
9915;DHT22;4996;48.746;9.174;2024-01-15T07:54:48;1.00;99.90
9915;DHT22;4996;48.746;9.174;2024-01-15T07:57:13;1.00;99.90
9915;DHT22;4996;48.746;9.174;2024-01-15T07:59:39;0.90;99.90
9915;DHT22;4996;48.746;9.174;2024-01-15T08:02:05;1.00;99.90
9915;DHT22;4996;48.746;9.174;2024-01-15T08:04:31;1.60;99.90
9915;DHT22;4996;48.746;9.174;2024-01-15T08:06:57;1.00;99.90
9915;DHT22;4996;48.746;9.174;2024-01-15T08:09:22;1.10;99.90
9915;DHT22;4996;48.746;9.174;2024-01-15T08:11:48;1.30;99.90
9915;DHT22;4996;48.746;9.174;2024-01-15T08:14:15;1.60;99.90
9915;DHT22;4996;48.746;9.174;2024-01-15T08:16:40;1.30;99.90
9915;DHT22;4996;48.746;9.174;2024-01-15T08:19:06;1.10;99.90
9915;DHT22;4996;48.746;9.174;2024-01-15T08:21:31;1.00;99.90
9915;DHT22;4996;48.746;9.174;2024-01-15T08:23:59;1.00;99.90
9915;DHT22;4996;48.746;9.174;2024-01-15T08:26:25;1.10;99.90
9915;DHT22;4996;48.746;9.174;2024-01-15T08:28:51;0.80;99.90
9915;DHT22;4996;48.746;9.174;2024-01-15T08:31:16;0.90;99.90
9915;DHT22;4996;48.746;9.174;2024-01-15T08:33:42;1.00;99.90
9915;DHT22;4996;48.746;9.174;2024-01-15T08:36:08;1.10;99.90
9915;DHT22;4996;48.746;9.174;2024-01-15T08:38:34;1.30;99.90
9915;DHT22;4996;48.746;9.174;2024-01-15T08:41:00;1.90;99.90
9915;DHT22;4996;48.746;9.174;2024-01-15T08:43:26;2.00;99.90
9915;DHT22;4996;48.746;9.174;2024-01-15T08:45:52;2.00;99.90
9915;DHT22;4996;48.746;9.174;2024-01-15T08:48:17;2.10;99.90
9915;DHT22;4996;48.746;9.174;2024-01-15T08:50:43;1.80;99.90
9915;DHT22;4996;48.746;9.174;2024-01-15T08:53:12;2.00;99.90
9915;DHT22;4996;48.746;9.174;2024-01-15T08:55:38;1.90;99.90
9915;DHT22;4996;48.746;9.174;2024-01-15T08:58:03;1.80;99.90
9915;DHT22;4996;48.746;9.174;2024-01-15T09:00:29;1.80;99.90
9915;DHT22;4996;48.746;9.174;2024-01-15T09:02:56;1.80;99.90
9915;DHT22;4996;48.746;9.174;2024-01-15T09:05:22;1.60;99.90
9915;DHT22;4996;48.746;9.174;2024-01-15T09:07:47;1.80;99.90
9915;DHT22;4996;48.746;9.174;2024-01-15T09:10:13;1.90;99.90
9915;DHT22;4996;48.746;9.174;2024-01-15T09:12:39;1.90;99.90
9915;DHT22;4996;48.746;9.174;2024-01-15T09:15:05;2.40;99.90
9915;DHT22;4996;48.746;9.174;2024-01-15T09:17:31;2.10;99.90
9915;DHT22;4996;48.746;9.174;2024-01-15T09:19:57;2.00;99.90
9915;DHT22;4996;48.746;9.174;2024-01-15T09:22:22;1.80;99.90
9915;DHT22;4996;48.746;9.174;2024-01-15T09:24:48;1.80;99.90
9915;DHT22;4996;48.746;9.174;2024-01-15T09:27:13;2.00;99.90
9915;DHT22;4996;48.746;9.174;2024-01-15T09:29:39;2.00;99.90
9915;DHT22;4996;48.746;9.174;2024-01-15T09:32:08;2.10;99.90
9915;DHT22;4996;48.746;9.174;2024-01-15T09:34:34;2.10;99.90
9915;DHT22;4996;48.746;9.174;2024-01-15T09:37:00;2.20;99.90
9915;DHT22;4996;48.746;9.174;2024-01-15T09:39:28;2.60;99.90
9915;DHT22;4996;48.746;9.174;2024-01-15T09:41:54;2.20;99.90
9915;DHT22;4996;48.746;9.174;2024-01-15T09:44:20;2.00;99.90
9915;DHT22;4996;48.746;9.174;2024-01-15T09:46:46;2.00;99.90
9915;DHT22;4996;48.746;9.174;2024-01-15T09:49:15;2.00;99.90
9915;DHT22;4996;48.746;9.174;2024-01-15T09:51:41;2.20;99.90
9915;DHT22;4996;48.746;9.174;2024-01-15T09:54:07;2.70;99.90
9915;DHT22;4996;48.746;9.174;2024-01-15T09:56:33;2.30;99.90
9915;DHT22;4996;48.746;9.174;2024-01-15T09:59:00;2.20;99.90
9915;DHT22;4996;48.746;9.174;2024-01-15T10:01:26;2.50;99.90
9915;DHT22;4996;48.746;9.174;2024-01-15T10:03:51;2.50;99.90
9915;DHT22;4996;48.746;9.174;2024-01-15T10:06:18;2.20;99.90
9915;DHT22;4996;48.746;9.174;2024-01-15T10:08:48;2.40;99.90
9915;DHT22;4996;48.746;9.174;2024-01-15T10:11:14;2.60;99.90
9915;DHT22;4996;48.746;9.174;2024-01-15T10:13:40;2.20;99.90
9915;DHT22;4996;48.746;9.174;2024-01-15T10:16:06;2.40;99.90
9915;DHT22;4996;48.746;9.174;2024-01-15T10:18:32;2.40;99.90
9915;DHT22;4996;48.746;9.174;2024-01-15T10:20:58;2.20;99.90
9915;DHT22;4996;48.746;9.174;2024-01-15T10:23:24;2.40;99.90
9915;DHT22;4996;48.746;9.174;2024-01-15T10:25:49;2.20;99.90
9915;DHT22;4996;48.746;9.174;2024-01-15T10:28:18;2.30;99.90
9915;DHT22;4996;48.746;9.174;2024-01-15T10:30:44;2.30;99.90
9915;DHT22;4996;48.746;9.174;2024-01-15T10:33:10;2.20;99.90
9915;DHT22;4996;48.746;9.174;2024-01-15T10:35:37;2.20;99.90
9915;DHT22;4996;48.746;9.174;2024-01-15T10:38:04;2.00;99.90
9915;DHT22;4996;48.746;9.174;2024-01-15T10:40:30;2.10;99.90
9915;DHT22;4996;48.746;9.174;2024-01-15T10:42:56;2.00;99.90
9915;DHT22;4996;48.746;9.174;2024-01-15T10:45:22;2.10;99.90
9915;DHT22;4996;48.746;9.174;2024-01-15T10:47:48;2.00;99.90
9915;DHT22;4996;48.746;9.174;2024-01-15T10:50:14;2.10;99.90
9915;DHT22;4996;48.746;9.174;2024-01-15T10:52:40;2.20;99.90
9915;DHT22;4996;48.746;9.174;2024-01-15T10:55:07;2.20;99.90
9915;DHT22;4996;48.746;9.174;2024-01-15T10:57:35;2.40;99.90
9915;DHT22;4996;48.746;9.174;2024-01-15T11:00:02;2.30;99.90
9915;DHT22;4996;48.746;9.174;2024-01-15T11:02:34;2.20;99.90
9915;DHT22;4996;48.746;9.174;2024-01-15T11:05:00;2.10;99.90
9915;DHT22;4996;48.746;9.174;2024-01-15T11:07:27;2.20;99.90
9915;DHT22;4996;48.746;9.174;2024-01-15T11:09:52;2.50;99.90
9915;DHT22;4996;48.746;9.174;2024-01-15T11:12:18;2.60;99.90
9915;DHT22;4996;48.746;9.174;2024-01-15T11:14:48;2.80;99.90
9915;DHT22;4996;48.746;9.174;2024-01-15T11:17:15;2.40;99.90
9915;DHT22;4996;48.746;9.174;2024-01-15T11:22:11;2.10;99.90
9915;DHT22;4996;48.746;9.174;2024-01-15T11:24:57;2.40;99.90
9915;DHT22;4996;48.746;9.174;2024-01-15T11:27:50;2.10;99.90
9915;DHT22;4996;48.746;9.174;2024-01-15T11:30:19;2.00;99.90
9915;DHT22;4996;48.746;9.174;2024-01-15T11:32:45;2.10;99.90
9915;DHT22;4996;48.746;9.174;2024-01-15T11:35:12;2.10;99.90
9915;DHT22;4996;48.746;9.174;2024-01-15T11:43:05;2.20;99.90
9915;DHT22;4996;48.746;9.174;2024-01-15T11:45:31;2.10;99.90
9915;DHT22;4996;48.746;9.174;2024-01-15T11:48:15;1.90;99.90
9915;DHT22;4996;48.746;9.174;2024-01-15T11:50:47;2.00;99.90
9915;DHT22;4996;48.746;9.174;2024-01-15T11:55:51;2.20;99.90
9915;DHT22;4996;48.746;9.174;2024-01-15T11:58:17;2.30;99.90
9915;DHT22;4996;48.746;9.174;2024-01-15T12:00:44;2.10;99.90
9915;DHT22;4996;48.746;9.174;2024-01-15T12:03:10;2.00;99.90
9915;DHT22;4996;48.746;9.174;2024-01-15T12:05:37;2.00;99.90
9915;DHT22;4996;48.746;9.174;2024-01-15T12:08:03;2.00;99.90
9915;DHT22;4996;48.746;9.174;2024-01-15T12:10:35;2.00;99.90
9915;DHT22;4996;48.746;9.174;2024-01-15T12:13:12;1.90;99.90
9915;DHT22;4996;48.746;9.174;2024-01-15T12:15:38;1.80;99.90
9915;DHT22;4996;48.746;9.174;2024-01-15T12:18:09;2.30;99.90
9915;DHT22;4996;48.746;9.174;2024-01-15T12:20:35;1.90;99.90
9915;DHT22;4996;48.746;9.174;2024-01-15T12:23:01;1.70;99.90
9915;DHT22;4996;48.746;9.174;2024-01-15T12:25:29;1.60;99.90
9915;DHT22;4996;48.746;9.174;2024-01-15T12:27:55;1.40;99.90
9915;DHT22;4996;48.746;9.174;2024-01-15T12:30:21;1.50;99.90
9915;DHT22;4996;48.746;9.174;2024-01-15T12:32:47;1.60;99.90
9915;DHT22;4996;48.746;9.174;2024-01-15T12:35:13;1.50;99.90
9915;DHT22;4996;48.746;9.174;2024-01-15T12:37:41;1.40;99.90
9915;DHT22;4996;48.746;9.174;2024-01-15T12:40:08;1.50;99.90
9915;DHT22;4996;48.746;9.174;2024-01-15T12:42:41;1.50;99.90
9915;DHT22;4996;48.746;9.174;2024-01-15T12:45:07;1.50;99.90
9915;DHT22;4996;48.746;9.174;2024-01-15T12:47:33;1.50;99.90
9915;DHT22;4996;48.746;9.174;2024-01-15T12:49:59;1.70;99.90
9915;DHT22;4996;48.746;9.174;2024-01-15T12:52:27;1.60;99.90
9915;DHT22;4996;48.746;9.174;2024-01-15T12:54:52;1.40;99.90
9915;DHT22;4996;48.746;9.174;2024-01-15T12:57:18;1.40;99.90
9915;DHT22;4996;48.746;9.174;2024-01-15T12:59:44;1.70;99.90
9915;DHT22;4996;48.746;9.174;2024-01-15T13:02:14;1.60;99.90
9915;DHT22;4996;48.746;9.174;2024-01-15T13:04:39;1.80;99.90
9915;DHT22;4996;48.746;9.174;2024-01-15T13:07:06;1.60;99.90
9915;DHT22;4996;48.746;9.174;2024-01-15T13:09:32;1.70;99.90
9915;DHT22;4996;48.746;9.174;2024-01-15T13:11:58;1.70;99.90
9915;DHT22;4996;48.746;9.174;2024-01-15T13:14:24;1.70;99.90
9915;DHT22;4996;48.746;9.174;2024-01-15T13:16:49;1.80;99.90
9915;DHT22;4996;48.746;9.174;2024-01-15T13:19:15;1.90;99.90
9915;DHT22;4996;48.746;9.174;2024-01-15T13:21:41;1.90;99.90
9915;DHT22;4996;48.746;9.174;2024-01-15T13:24:06;2.10;99.90
9915;DHT22;4996;48.746;9.174;2024-01-15T13:26:33;2.20;99.90
9915;DHT22;4996;48.746;9.174;2024-01-15T13:29:01;2.20;99.90
9915;DHT22;4996;48.746;9.174;2024-01-15T13:31:27;2.10;99.90
9915;DHT22;4996;48.746;9.174;2024-01-15T13:36:32;2.00;99.90
9915;DHT22;4996;48.746;9.174;2024-01-15T13:38:57;2.10;99.90
9915;DHT22;4996;48.746;9.174;2024-01-15T13:41:24;1.80;99.90
9915;DHT22;4996;48.746;9.174;2024-01-15T13:43:53;1.90;99.90
9915;DHT22;4996;48.746;9.174;2024-01-15T13:46:19;2.10;99.90
9915;DHT22;4996;48.746;9.174;2024-01-15T13:48:45;2.00;99.90
9915;DHT22;4996;48.746;9.174;2024-01-15T13:51:11;2.10;99.90
9915;DHT22;4996;48.746;9.174;2024-01-15T13:53:37;2.20;99.90
9915;DHT22;4996;48.746;9.174;2024-01-15T13:56:04;2.30;99.90
9915;DHT22;4996;48.746;9.174;2024-01-15T13:58:30;2.20;99.90
9915;DHT22;4996;48.746;9.174;2024-01-15T14:00:56;2.10;99.90
9915;DHT22;4996;48.746;9.174;2024-01-15T14:03:21;2.20;99.90
9915;DHT22;4996;48.746;9.174;2024-01-15T14:05:47;2.30;99.90
9915;DHT22;4996;48.746;9.174;2024-01-15T14:08:12;2.60;99.90
9915;DHT22;4996;48.746;9.174;2024-01-15T14:10:38;2.20;99.90
9915;DHT22;4996;48.746;9.174;2024-01-15T14:13:04;2.30;99.90
9915;DHT22;4996;48.746;9.174;2024-01-15T14:15:29;2.30;99.90
9915;DHT22;4996;48.746;9.174;2024-01-15T14:17:55;2.20;99.90
9915;DHT22;4996;48.746;9.174;2024-01-15T14:20:20;2.30;99.90
9915;DHT22;4996;48.746;9.174;2024-01-15T14:22:46;2.20;99.90
9915;DHT22;4996;48.746;9.174;2024-01-15T14:25:11;2.30;99.90
9915;DHT22;4996;48.746;9.174;2024-01-15T14:27:37;2.20;99.90
9915;DHT22;4996;48.746;9.174;2024-01-15T14:30:03;2.30;99.90
9915;DHT22;4996;48.746;9.174;2024-01-15T14:32:28;2.10;99.90
9915;DHT22;4996;48.746;9.174;2024-01-15T14:34:54;1.80;99.90
9915;DHT22;4996;48.746;9.174;2024-01-15T14:37:22;1.80;99.90
9915;DHT22;4996;48.746;9.174;2024-01-15T14:39:47;1.50;99.90
9915;DHT22;4996;48.746;9.174;2024-01-15T14:42:12;1.40;99.90
9915;DHT22;4996;48.746;9.174;2024-01-15T14:44:38;1.50;99.90
9915;DHT22;4996;48.746;9.174;2024-01-15T14:47:06;1.30;99.90
9915;DHT22;4996;48.746;9.174;2024-01-15T14:49:31;1.40;99.90
9915;DHT22;4996;48.746;9.174;2024-01-15T14:51:57;1.20;99.90
9915;DHT22;4996;48.746;9.174;2024-01-15T14:54:23;1.20;99.90
9915;DHT22;4996;48.746;9.174;2024-01-15T14:56:48;1.40;99.90
9915;DHT22;4996;48.746;9.174;2024-01-15T14:59:14;1.20;99.90
9915;DHT22;4996;48.746;9.174;2024-01-15T15:01:39;1.20;99.90
9915;DHT22;4996;48.746;9.174;2024-01-15T15:04:05;1.40;99.90
9915;DHT22;4996;48.746;9.174;2024-01-15T15:06:30;1.40;99.90
9915;DHT22;4996;48.746;9.174;2024-01-15T15:08:56;1.50;99.90
9915;DHT22;4996;48.746;9.174;2024-01-15T15:11:25;1.50;99.90
9915;DHT22;4996;48.746;9.174;2024-01-15T15:13:51;1.50;99.90
9915;DHT22;4996;48.746;9.174;2024-01-15T15:16:17;1.50;99.90
9915;DHT22;4996;48.746;9.174;2024-01-15T15:18:42;1.40;99.90
9915;DHT22;4996;48.746;9.174;2024-01-15T15:21:12;1.40;99.90
9915;DHT22;4996;48.746;9.174;2024-01-15T15:23:37;1.40;99.90
9915;DHT22;4996;48.746;9.174;2024-01-15T15:26:04;1.50;99.90
9915;DHT22;4996;48.746;9.174;2024-01-15T15:28:30;1.50;99.90
9915;DHT22;4996;48.746;9.174;2024-01-15T15:30:55;1.50;99.90
9915;DHT22;4996;48.746;9.174;2024-01-15T15:33:22;1.80;99.90
9915;DHT22;4996;48.746;9.174;2024-01-15T15:35:48;1.50;99.90
9915;DHT22;4996;48.746;9.174;2024-01-15T15:38:16;1.60;99.90
9915;DHT22;4996;48.746;9.174;2024-01-15T15:40:42;1.50;99.90
9915;DHT22;4996;48.746;9.174;2024-01-15T15:43:07;1.40;99.90
9915;DHT22;4996;48.746;9.174;2024-01-15T15:45:33;1.20;99.90
9915;DHT22;4996;48.746;9.174;2024-01-15T15:47:58;1.40;99.90
9915;DHT22;4996;48.746;9.174;2024-01-15T15:50:24;1.20;99.90
9915;DHT22;4996;48.746;9.174;2024-01-15T15:52:49;1.20;99.90
9915;DHT22;4996;48.746;9.174;2024-01-15T15:55:15;1.20;99.90
9915;DHT22;4996;48.746;9.174;2024-01-15T15:57:40;1.10;99.90
9915;DHT22;4996;48.746;9.174;2024-01-15T16:00:06;1.10;99.90
9915;DHT22;4996;48.746;9.174;2024-01-15T16:02:32;1.00;99.90
9915;DHT22;4996;48.746;9.174;2024-01-15T16:04:57;1.10;99.90
9915;DHT22;4996;48.746;9.174;2024-01-15T16:07:23;1.10;99.90
9915;DHT22;4996;48.746;9.174;2024-01-15T16:09:54;1.20;99.90
9915;DHT22;4996;48.746;9.174;2024-01-15T16:12:20;1.30;99.90
9915;DHT22;4996;48.746;9.174;2024-01-15T16:14:45;1.10;99.90
9915;DHT22;4996;48.746;9.174;2024-01-15T16:17:11;1.10;99.90
9915;DHT22;4996;48.746;9.174;2024-01-15T16:19:36;1.20;99.90
9915;DHT22;4996;48.746;9.174;2024-01-15T16:22:02;1.30;99.90